Sankt Peterburg — UFZC — position and weather

sailwx.info

Track history (hours):
 
Tides and Currents Weather Stations Pressure Air Temp Water Temp Dewpoint Dewpoint Depression Visibility Wind Speed Wind Dir Waves Ship Positions

Sankt Peterburg

Last reported at 2018-Jun-10 04:27 UTC. Time now 2018-Jun-20 03:09 UTC.
Position N 45°33' E 036°48'.
Warning: this ship's position is 9 days out of date.

Length 141 m; draft 2.9 m.

Type: Ship. MMSI: 273443330.

Date/timePositionNaut miles runAvg speedWind from/ knotsBaromVisibWave heightAir tempDewpointWater temp
2018-Jun-10 04:27N 45°33' E 036°48'4 8.7
2018-Jun-10 04:01N 45°30' E 036°45'4 8.5
2018-Jun-10 03:31N 45°26' E 036°43'4 8.6
2018-Jun-10 03:00N 45°22' E 036°40'4 7.6
2018-Jun-10 02:31N 45°20' E 036°36'4 8.6
2018-Jun-10 02:00N 45°18' E 036°30'4 6.8
2018-Jun-10 01:24N 45°14' E 036°29'3 5.9
2018-Jun-10 00:56N 45°12' E 036°29'3 5.5
2018-Jun-10 00:27N 45°10' E 036°32'4 0.3
2018-Jun-09 12:24N 45°06' E 036°34'0 0.1
2018-Jun-09 10:05N 45°06' E 036°34'0 1.6
2018-Jun-09 10:00N 45°06' E 036°34'2 3.8
2018-Jun-09 09:29N 45°07' E 036°31'0 0.1
2018-Jun-09 08:59N 45°07' E 036°31'0 0.1
2018-Jun-09 08:29N 45°07' E 036°31'0 0.0
2018-Jun-09 07:56N 45°07' E 036°31'0 0.1
2018-Jun-09 07:29N 45°07' E 036°31'0 0.1
2018-Jun-09 06:47N 45°06' E 036°32'0 0.0
2018-Jun-09 06:23N 45°06' E 036°32'0 0.1
2018-Jun-09 05:56N 45°06' E 036°32'0 0.1
2018-Jun-09 05:29N 45°07' E 036°31'0 0.0
2018-Jun-09 04:59N 45°07' E 036°31'0 0.0
2018-Jun-09 04:29N 45°07' E 036°31'0 0.0
2018-Jun-09 03:56N 45°07' E 036°31'0 0.0
2018-Jun-09 03:29N 45°07' E 036°31'0 0.0
2018-Jun-09 02:53N 45°07' E 036°31'0 0.0
2018-Jun-08 23:44N 45°06' E 036°32'0 0.0
2018-Jun-08 23:23N 45°06' E 036°32'0 0.0
2018-Jun-08 22:59N 45°06' E 036°32'0 0.0
2018-Jun-08 22:23N 45°06' E 036°32'0 0.0
2018-Jun-08 21:53N 45°06' E 036°32'0 0.0
2018-Jun-08 21:29N 45°06' E 036°32'0 0.0
2018-Jun-08 17:38N 45°06' E 036°32'0 0.0
2018-Jun-08 17:29N 45°06' E 036°32'0 0.0
2018-Jun-08 16:50N 45°06' E 036°32'0 0.0
2018-Jun-08 16:23N 45°06' E 036°32'0 0.0
2018-Jun-08 15:59N 45°06' E 036°32'0 0.0
2018-Jun-08 15:29N 45°06' E 036°32'0 0.0
2018-Jun-08 14:59N 45°06' E 036°32'0 0.0
2018-Jun-08 14:14N 45°06' E 036°32'0 0.0
2018-Jun-08 13:59N 45°06' E 036°32'0 0.0
2018-Jun-08 13:29N 45°06' E 036°32'0 0.0
2018-Jun-08 12:59N 45°06' E 036°32'0 0.0
2018-Jun-08 12:29N 45°06' E 036°32'0 0.0
2018-Jun-08 11:56N 45°06' E 036°32'0 0.0
2018-Jun-08 11:29N 45°06' E 036°32'0 0.0
2018-Jun-08 10:59N 45°06' E 036°32'0 0.0
2018-Jun-08 10:20N 45°06' E 036°32'0 0.0
2018-Jun-08 09:59N 45°06' E 036°32'0 0.0
2018-Jun-08 09:29N 45°06' E 036°31'0 0.0
2018-Jun-08 08:59N 45°07' E 036°31'0 0.0
2018-Jun-08 08:26N 45°06' E 036°31'0 0.0
2018-Jun-08 07:59N 45°06' E 036°31'0 0.0
2018-Jun-08 07:29N 45°06' E 036°31'0 0.0
2018-Jun-08 06:56N 45°07' E 036°31'0 0.0
2018-Jun-08 06:29N 45°07' E 036°31'0 0.0
2018-Jun-08 05:59N 45°07' E 036°31'0 0.0
2018-Jun-08 05:26N 45°07' E 036°31'0 0.0
2018-Jun-08 04:56N 45°07' E 036°31'0 0.0
2018-Jun-08 04:26N 45°07' E 036°31'0 0.0
2018-Jun-08 03:47N 45°06' E 036°31'0 0.0
2018-Jun-08 03:29N 45°07' E 036°31'0 0.0
2018-Jun-08 02:59N 45°07' E 036°31'0 0.0
2018-Jun-08 02:08N 45°06' E 036°32'0 0.0
2018-Jun-08 01:59N 45°06' E 036°32'1 0.2
2018-Jun-07 20:24N 45°08' E 036°31'4 8.5
2018-Jun-07 19:54N 45°11' E 036°28'3 8.5
2018-Jun-07 19:30N 45°15' E 036°28'4 7.4
2018-Jun-07 18:59N 45°18' E 036°30'4 8.9
2018-Jun-07 18:30N 45°20' E 036°36'4 7.4
2018-Jun-07 18:00N 45°22' E 036°40'3 5.6
2018-Jun-07 17:30N 45°25' E 036°41'3 5.2
2018-Jun-07 17:00N 45°27' E 036°43'2 4.3
2018-Jun-07 16:30N 45°29' E 036°45'0 0.1
2018-Jun-07 15:59N 45°29' E 036°45'0 0.0
2018-Jun-07 15:29N 45°29' E 036°45'0 0.1
2018-Jun-07 14:59N 45°29' E 036°45'1 2.7
2018-Jun-07 14:30N 45°30' E 036°45'6 8.2
2018-Jun-07 13:48N 45°35' E 036°49'  
Track history (hours):
 
Tides and Currents Weather Stations Pressure Air Temp Water Temp Dewpoint Dewpoint Depression Visibility Wind Speed Wind Dir Waves Ship Positions

Sankt Peterburg

Last reported at 2018-Jun-10 04:27 UTC. Time now 2018-Jun-20 03:09 UTC.
Position N 45°33' E 036°48'.
Warning: this ship's position is 9 days out of date.

Length 141 m; draft 2.9 m.

Type: Ship. MMSI: 273443330.

Date/timePositionNaut miles runAvg speedWind from/ knotsBaromVisibWave heightAir tempDewpointWater temp
2018-Jun-10 04:27N 45°33' E 036°48'4 8.7
2018-Jun-10 04:01N 45°30' E 036°45'4 8.5
2018-Jun-10 03:31N 45°26' E 036°43'4 8.6
2018-Jun-10 03:00N 45°22' E 036°40'4 7.6
2018-Jun-10 02:31N 45°20' E 036°36'4 8.6
2018-Jun-10 02:00N 45°18' E 036°30'4 6.8
2018-Jun-10 01:24N 45°14' E 036°29'3 5.9
2018-Jun-10 00:56N 45°12' E 036°29'3 5.5
2018-Jun-10 00:27N 45°10' E 036°32'4 0.3
2018-Jun-09 12:24N 45°06' E 036°34'0 0.1
2018-Jun-09 10:05N 45°06' E 036°34'0 1.6
2018-Jun-09 10:00N 45°06' E 036°34'2 3.8
2018-Jun-09 09:29N 45°07' E 036°31'0 0.1
2018-Jun-09 08:59N 45°07' E 036°31'0 0.1
2018-Jun-09 08:29N 45°07' E 036°31'0 0.0
2018-Jun-09 07:56N 45°07' E 036°31'0 0.1
2018-Jun-09 07:29N 45°07' E 036°31'0 0.1
2018-Jun-09 06:47N 45°06' E 036°32'0 0.0
2018-Jun-09 06:23N 45°06' E 036°32'0 0.1
2018-Jun-09 05:56N 45°06' E 036°32'0 0.1
2018-Jun-09 05:29N 45°07' E 036°31'0 0.0
2018-Jun-09 04:59N 45°07' E 036°31'0 0.0
2018-Jun-09 04:29N 45°07' E 036°31'0 0.0
2018-Jun-09 03:56N 45°07' E 036°31'0 0.0
2018-Jun-09 03:29N 45°07' E 036°31'0 0.0
2018-Jun-09 02:53N 45°07' E 036°31'0 0.0
2018-Jun-08 23:44N 45°06' E 036°32'0 0.0
2018-Jun-08 23:23N 45°06' E 036°32'0 0.0
2018-Jun-08 22:59N 45°06' E 036°32'0 0.0
2018-Jun-08 22:23N 45°06' E 036°32'0 0.0
2018-Jun-08 21:53N 45°06' E 036°32'0 0.0
2018-Jun-08 21:29N 45°06' E 036°32'0 0.0
2018-Jun-08 17:38N 45°06' E 036°32'0 0.0
2018-Jun-08 17:29N 45°06' E 036°32'0 0.0
2018-Jun-08 16:50N 45°06' E 036°32'0 0.0
2018-Jun-08 16:23N 45°06' E 036°32'0 0.0
2018-Jun-08 15:59N 45°06' E 036°32'0 0.0
2018-Jun-08 15:29N 45°06' E 036°32'0 0.0
2018-Jun-08 14:59N 45°06' E 036°32'0 0.0
2018-Jun-08 14:14N 45°06' E 036°32'0 0.0
2018-Jun-08 13:59N 45°06' E 036°32'0 0.0
2018-Jun-08 13:29N 45°06' E 036°32'0 0.0
2018-Jun-08 12:59N 45°06' E 036°32'0 0.0
2018-Jun-08 12:29N 45°06' E 036°32'0 0.0
2018-Jun-08 11:56N 45°06' E 036°32'0 0.0
2018-Jun-08 11:29N 45°06' E 036°32'0 0.0
2018-Jun-08 10:59N 45°06' E 036°32'0 0.0
2018-Jun-08 10:20N 45°06' E 036°32'0 0.0
2018-Jun-08 09:59N 45°06' E 036°32'0 0.0
2018-Jun-08 09:29N 45°06' E 036°31'0 0.0
2018-Jun-08 08:59N 45°07' E 036°31'0 0.0
2018-Jun-08 08:26N 45°06' E 036°31'0 0.0
2018-Jun-08 07:59N 45°06' E 036°31'0 0.0
2018-Jun-08 07:29N 45°06' E 036°31'0 0.0
2018-Jun-08 06:56N 45°07' E 036°31'0 0.0
2018-Jun-08 06:29N 45°07' E 036°31'0 0.0
2018-Jun-08 05:59N 45°07' E 036°31'0 0.0
2018-Jun-08 05:26N 45°07' E 036°31'0 0.0
2018-Jun-08 04:56N 45°07' E 036°31'0 0.0
2018-Jun-08 04:26N 45°07' E 036°31'0 0.0
2018-Jun-08 03:47N 45°06' E 036°31'0 0.0
2018-Jun-08 03:29N 45°07' E 036°31'0 0.0
2018-Jun-08 02:59N 45°07' E 036°31'0 0.0
2018-Jun-08 02:08N 45°06' E 036°32'0 0.0
2018-Jun-08 01:59N 45°06' E 036°32'1 0.2
2018-Jun-07 20:24N 45°08' E 036°31'4 8.5
2018-Jun-07 19:54N 45°11' E 036°28'3 8.5
2018-Jun-07 19:30N 45°15' E 036°28'4 7.4
2018-Jun-07 18:59N 45°18' E 036°30'4 8.9
2018-Jun-07 18:30N 45°20' E 036°36'4 7.4
2018-Jun-07 18:00N 45°22' E 036°40'3 5.6
2018-Jun-07 17:30N 45°25' E 036°41'3 5.2
2018-Jun-07 17:00N 45°27' E 036°43'2 4.3
2018-Jun-07 16:30N 45°29' E 036°45'0 0.1
2018-Jun-07 15:59N 45°29' E 036°45'0 0.0
2018-Jun-07 15:29N 45°29' E 036°45'0 0.1
2018-Jun-07 14:59N 45°29' E 036°45'1 2.7
2018-Jun-07 14:30N 45°30' E 036°45'6 8.2
2018-Jun-07 13:48N 45°35' E 036°49'  

Dump ship's entire track history